sensor_id;sensor_type;location;lat;lon;timestamp;pressure;altitude;pressure_sealevel;temperature;humidity
56182;BME280;51963;46.052;14.544;2023-03-19T00:00:13;98308.03;;;4.19;91.17
56182;BME280;51963;46.052;14.544;2023-03-19T00:02:42;98323.94;;;4.25;91.51
56182;BME280;51963;46.052;14.544;2023-03-19T00:05:14;98323.16;;;4.25;92.55
56182;BME280;51963;46.052;14.544;2023-03-19T00:07:50;98328.38;;;4.25;92.77
56182;BME280;51963;46.052;14.544;2023-03-19T00:10:21;98323.56;;;4.20;93.18
56182;BME280;51963;46.052;14.544;2023-03-19T00:12:47;98330.03;;;4.26;93.58
56182;BME280;51963;46.052;14.544;2023-03-19T00:15:12;98333.25;;;4.38;92.78
56182;BME280;51963;46.052;14.544;2023-03-19T00:17:40;98330.53;;;4.30;93.63
56182;BME280;51963;46.052;14.544;2023-03-19T00:20:07;98326.50;;;4.53;92.35
56182;BME280;51963;46.052;14.544;2023-03-19T00:22:32;98331.59;;;4.55;91.86
56182;BME280;51963;46.052;14.544;2023-03-19T00:24:58;98305.94;;;4.22;92.92
56182;BME280;51963;46.052;14.544;2023-03-19T00:27:24;98316.25;;;4.24;94.00
56182;BME280;51963;46.052;14.544;2023-03-19T00:29:49;98324.03;;;4.34;94.36
56182;BME280;51963;46.052;14.544;2023-03-19T00:32:18;98321.13;;;4.19;95.02
56182;BME280;51963;46.052;14.544;2023-03-19T00:34:43;98328.72;;;4.12;95.34
56182;BME280;51963;46.052;14.544;2023-03-19T00:37:11;98326.19;;;4.02;96.72
56182;BME280;51963;46.052;14.544;2023-03-19T00:39:37;98323.19;;;3.97;96.94
56182;BME280;51963;46.052;14.544;2023-03-19T00:42:05;98322.50;;;3.95;97.81
56182;BME280;51963;46.052;14.544;2023-03-19T00:44:32;98332.00;;;3.96;98.01
56182;BME280;51963;46.052;14.544;2023-03-19T00:46:57;98330.66;;;4.10;98.31
56182;BME280;51963;46.052;14.544;2023-03-19T00:49:23;98325.25;;;3.93;98.42
56182;BME280;51963;46.052;14.544;2023-03-19T00:51:49;98329.13;;;3.89;99.34
56182;BME280;51963;46.052;14.544;2023-03-19T00:54:15;98304.13;;;3.77;99.46
56182;BME280;51963;46.052;14.544;2023-03-19T00:56:41;98330.28;;;3.77;99.79
56182;BME280;51963;46.052;14.544;2023-03-19T00:59:07;98340.06;;;3.75;99.28
56182;BME280;51963;46.052;14.544;2023-03-19T01:01:32;98333.78;;;3.67;99.46
56182;BME280;51963;46.052;14.544;2023-03-19T01:04:00;98336.69;;;3.64;99.78
56182;BME280;51963;46.052;14.544;2023-03-19T01:06:25;98338.91;;;3.59;99.75
56182;BME280;51963;46.052;14.544;2023-03-19T01:08:51;98337.81;;;3.52;100.00
56182;BME280;51963;46.052;14.544;2023-03-19T01:11:18;98337.16;;;3.50;100.00
56182;BME280;51963;46.052;14.544;2023-03-19T01:13:44;98334.41;;;3.42;100.00
56182;BME280;51963;46.052;14.544;2023-03-19T01:16:11;98334.72;;;3.38;100.00
56182;BME280;51963;46.052;14.544;2023-03-19T01:18:36;98341.19;;;3.34;100.00
56182;BME280;51963;46.052;14.544;2023-03-19T01:21:03;98329.25;;;3.22;100.00
56182;BME280;51963;46.052;14.544;2023-03-19T01:23:30;98314.31;;;3.14;100.00
56182;BME280;51963;46.052;14.544;2023-03-19T01:25:56;98327.72;;;3.29;100.00
56182;BME280;51963;46.052;14.544;2023-03-19T01:28:23;98329.66;;;3.27;100.00
56182;BME280;51963;46.052;14.544;2023-03-19T01:30:49;98315.09;;;3.25;100.00
56182;BME280;51963;46.052;14.544;2023-03-19T01:33:30;98326.63;;;3.32;100.00
56182;BME280;51963;46.052;14.544;2023-03-19T01:35:58;98314.25;;;3.24;100.00
56182;BME280;51963;46.052;14.544;2023-03-19T01:38:32;98333.50;;;3.23;100.00
56182;BME280;51963;46.052;14.544;2023-03-19T01:41:02;98320.09;;;3.08;100.00
56182;BME280;51963;46.052;14.544;2023-03-19T01:43:29;98343.44;;;3.10;100.00
56182;BME280;51963;46.052;14.544;2023-03-19T01:49:23;98280.53;;;2.73;100.00
56182;BME280;51963;46.052;14.544;2023-03-19T01:52:06;98304.69;;;3.05;100.00
56182;BME280;51963;46.052;14.544;2023-03-19T01:54:42;98326.50;;;3.61;100.00
56182;BME280;51963;46.052;14.544;2023-03-19T01:57:17;98324.34;;;3.57;100.00
56182;BME280;51963;46.052;14.544;2023-03-19T02:00:06;98321.06;;;3.45;100.00
56182;BME280;51963;46.052;14.544;2023-03-19T02:02:49;98316.69;;;3.45;100.00
56182;BME280;51963;46.052;14.544;2023-03-19T02:05:41;98327.91;;;3.56;100.00
56182;BME280;51963;46.052;14.544;2023-03-19T02:08:14;98326.69;;;3.50;100.00
56182;BME280;51963;46.052;14.544;2023-03-19T02:10:42;98330.78;;;3.25;100.00
56182;BME280;51963;46.052;14.544;2023-03-19T02:13:09;98338.22;;;3.10;100.00
56182;BME280;51963;46.052;14.544;2023-03-19T02:15:35;98329.16;;;2.94;100.00
56182;BME280;51963;46.052;14.544;2023-03-19T02:18:26;98331.53;;;2.77;100.00
56182;BME280;51963;46.052;14.544;2023-03-19T02:21:24;98321.09;;;2.68;100.00
56182;BME280;51963;46.052;14.544;2023-03-19T02:26:40;98336.88;;;2.56;100.00
56182;BME280;51963;46.052;14.544;2023-03-19T02:29:06;98312.97;;;2.41;100.00
56182;BME280;51963;46.052;14.544;2023-03-19T02:31:35;98319.69;;;2.44;100.00
56182;BME280;51963;46.052;14.544;2023-03-19T02:34:14;98311.34;;;2.40;100.00
56182;BME280;51963;46.052;14.544;2023-03-19T02:36:54;98332.34;;;2.48;100.00
56182;BME280;51963;46.052;14.544;2023-03-19T02:39:27;98314.63;;;2.42;100.00
56182;BME280;51963;46.052;14.544;2023-03-19T02:41:55;98329.19;;;2.55;100.00
56182;BME280;51963;46.052;14.544;2023-03-19T02:44:24;98337.16;;;2.53;100.00
56182;BME280;51963;46.052;14.544;2023-03-19T02:46:51;98330.28;;;2.62;100.00
56182;BME280;51963;46.052;14.544;2023-03-19T02:49:17;98327.00;;;2.79;100.00
56182;BME280;51963;46.052;14.544;2023-03-19T02:51:45;98324.53;;;2.78;100.00
56182;BME280;51963;46.052;14.544;2023-03-19T02:54:11;98326.03;;;2.81;100.00
56182;BME280;51963;46.052;14.544;2023-03-19T02:56:37;98311.47;;;2.68;100.00
56182;BME280;51963;46.052;14.544;2023-03-19T02:59:07;98307.19;;;2.87;100.00
56182;BME280;51963;46.052;14.544;2023-03-19T03:01:36;98314.91;;;2.88;100.00
56182;BME280;51963;46.052;14.544;2023-03-19T03:04:04;98313.09;;;2.89;100.00
56182;BME280;51963;46.052;14.544;2023-03-19T03:06:30;98304.28;;;2.90;100.00
56182;BME280;51963;46.052;14.544;2023-03-19T03:09:00;98322.38;;;3.21;100.00
56182;BME280;51963;46.052;14.544;2023-03-19T03:11:26;98320.63;;;3.12;100.00
56182;BME280;51963;46.052;14.544;2023-03-19T03:13:52;98325.94;;;3.20;100.00
56182;BME280;51963;46.052;14.544;2023-03-19T03:16:20;98321.84;;;3.07;100.00
56182;BME280;51963;46.052;14.544;2023-03-19T03:18:47;98327.53;;;3.03;100.00
56182;BME280;51963;46.052;14.544;2023-03-19T03:21:12;98327.94;;;2.98;100.00
56182;BME280;51963;46.052;14.544;2023-03-19T03:23:38;98286.06;;;2.80;100.00
56182;BME280;51963;46.052;14.544;2023-03-19T03:26:04;98318.59;;;2.96;100.00
56182;BME280;51963;46.052;14.544;2023-03-19T03:28:31;98321.34;;;2.94;100.00
56182;BME280;51963;46.052;14.544;2023-03-19T03:30:58;98338.38;;;2.98;100.00
56182;BME280;51963;46.052;14.544;2023-03-19T03:33:24;98324.50;;;2.98;100.00
56182;BME280;51963;46.052;14.544;2023-03-19T03:35:52;98322.84;;;2.97;100.00
56182;BME280;51963;46.052;14.544;2023-03-19T03:38:17;98294.56;;;2.82;100.00
56182;BME280;51963;46.052;14.544;2023-03-19T03:40:43;98328.59;;;3.10;100.00
56182;BME280;51963;46.052;14.544;2023-03-19T03:43:09;98321.69;;;3.19;100.00
56182;BME280;51963;46.052;14.544;2023-03-19T03:45:38;98335.19;;;3.14;100.00
56182;BME280;51963;46.052;14.544;2023-03-19T03:48:03;98340.16;;;3.07;100.00
56182;BME280;51963;46.052;14.544;2023-03-19T03:50:32;98323.25;;;3.02;100.00
56182;BME280;51963;46.052;14.544;2023-03-19T03:53:03;98319.00;;;2.91;100.00
56182;BME280;51963;46.052;14.544;2023-03-19T03:55:29;98325.91;;;2.82;100.00
56182;BME280;51963;46.052;14.544;2023-03-19T03:57:56;98306.94;;;2.70;100.00
56182;BME280;51963;46.052;14.544;2023-03-19T04:00:24;98333.03;;;2.90;100.00
56182;BME280;51963;46.052;14.544;2023-03-19T04:02:51;98322.72;;;2.88;100.00
56182;BME280;51963;46.052;14.544;2023-03-19T04:05:17;98332.72;;;3.13;100.00
56182;BME280;51963;46.052;14.544;2023-03-19T04:07:46;98323.94;;;3.04;100.00
56182;BME280;51963;46.052;14.544;2023-03-19T04:10:13;98330.25;;;3.01;100.00
56182;BME280;51963;46.052;14.544;2023-03-19T04:12:40;98329.16;;;2.94;100.00
56182;BME280;51963;46.052;14.544;2023-03-19T04:15:07;98314.63;;;2.82;100.00
56182;BME280;51963;46.052;14.544;2023-03-19T04:17:36;98326.44;;;2.86;100.00
56182;BME280;51963;46.052;14.544;2023-03-19T04:20:03;98315.19;;;2.85;100.00
56182;BME280;51963;46.052;14.544;2023-03-19T04:22:30;98338.78;;;3.13;100.00
56182;BME280;51963;46.052;14.544;2023-03-19T04:24:58;98335.72;;;3.18;100.00
56182;BME280;51963;46.052;14.544;2023-03-19T04:27:25;98340.69;;;3.11;100.00
56182;BME280;51963;46.052;14.544;2023-03-19T04:29:51;98344.94;;;3.22;100.00
56182;BME280;51963;46.052;14.544;2023-03-19T04:32:18;98326.97;;;2.99;100.00
56182;BME280;51963;46.052;14.544;2023-03-19T04:34:46;98329.94;;;3.24;100.00
56182;BME280;51963;46.052;14.544;2023-03-19T04:37:12;98328.56;;;3.30;100.00
56182;BME280;51963;46.052;14.544;2023-03-19T04:39:47;98338.75;;;3.23;100.00
56182;BME280;51963;46.052;14.544;2023-03-19T04:42:13;98333.16;;;3.46;100.00
56182;BME280;51963;46.052;14.544;2023-03-19T04:44:46;98334.53;;;3.50;100.00
56182;BME280;51963;46.052;14.544;2023-03-19T04:47:14;98317.66;;;3.44;100.00
56182;BME280;51963;46.052;14.544;2023-03-19T04:49:53;98325.88;;;3.49;100.00
56182;BME280;51963;46.052;14.544;2023-03-19T04:52:20;98330.44;;;3.47;100.00
56182;BME280;51963;46.052;14.544;2023-03-19T04:54:48;98326.06;;;3.28;100.00
56182;BME280;51963;46.052;14.544;2023-03-19T04:57:16;98334.03;;;3.36;100.00
56182;BME280;51963;46.052;14.544;2023-03-19T04:59:44;98329.13;;;3.23;100.00
56182;BME280;51963;46.052;14.544;2023-03-19T05:02:13;98336.84;;;3.05;100.00
56182;BME280;51963;46.052;14.544;2023-03-19T05:04:40;98342.34;;;3.02;100.00
56182;BME280;51963;46.052;14.544;2023-03-19T05:07:11;98333.03;;;2.90;100.00
56182;BME280;51963;46.052;14.544;2023-03-19T05:09:37;98346.50;;;2.85;100.00
56182;BME280;51963;46.052;14.544;2023-03-19T05:12:03;98325.38;;;2.69;100.00
56182;BME280;51963;46.052;14.544;2023-03-19T05:14:39;98342.09;;;2.66;100.00
56182;BME280;51963;46.052;14.544;2023-03-19T05:17:10;98337.84;;;2.85;100.00
56182;BME280;51963;46.052;14.544;2023-03-19T05:19:55;98343.34;;;2.72;100.00
56182;BME280;51963;46.052;14.544;2023-03-19T05:22:21;98293.88;;;2.60;100.00
56182;BME280;51963;46.052;14.544;2023-03-19T05:24:48;98335.78;;;2.78;100.00
56182;BME280;51963;46.052;14.544;2023-03-19T05:27:14;98345.13;;;2.91;100.00
56182;BME280;51963;46.052;14.544;2023-03-19T05:29:48;98354.19;;;2.87;100.00
56182;BME280;51963;46.052;14.544;2023-03-19T05:32:20;98341.25;;;3.05;100.00
56182;BME280;51963;46.052;14.544;2023-03-19T05:34:46;98351.16;;;3.01;100.00
56182;BME280;51963;46.052;14.544;2023-03-19T05:37:13;98333.31;;;2.97;100.00
56182;BME280;51963;46.052;14.544;2023-03-19T05:39:40;98324.03;;;3.22;100.00
56182;BME280;51963;46.052;14.544;2023-03-19T05:42:08;98350.31;;;3.58;100.00
56182;BME280;51963;46.052;14.544;2023-03-19T05:44:33;98356.34;;;3.69;100.00
56182;BME280;51963;46.052;14.544;2023-03-19T05:47:34;98362.03;;;3.54;100.00
56182;BME280;51963;46.052;14.544;2023-03-19T05:50:01;98348.69;;;3.57;100.00
56182;BME280;51963;46.052;14.544;2023-03-19T05:52:31;98351.56;;;3.54;100.00
56182;BME280;51963;46.052;14.544;2023-03-19T05:54:58;98359.81;;;3.59;100.00
56182;BME280;51963;46.052;14.544;2023-03-19T05:57:36;98351.97;;;3.59;100.00
56182;BME280;51963;46.052;14.544;2023-03-19T06:00:15;98337.25;;;3.58;100.00
56182;BME280;51963;46.052;14.544;2023-03-19T06:02:41;98354.59;;;3.59;100.00
56182;BME280;51963;46.052;14.544;2023-03-19T06:05:39;98346.84;;;3.67;100.00
56182;BME280;51963;46.052;14.544;2023-03-19T06:08:18;98346.56;;;3.71;100.00
56182;BME280;51963;46.052;14.544;2023-03-19T06:11:10;98368.53;;;3.88;100.00
56182;BME280;51963;46.052;14.544;2023-03-19T06:13:37;98355.72;;;3.85;100.00
56182;BME280;51963;46.052;14.544;2023-03-19T06:16:06;98370.84;;;3.91;100.00
56182;BME280;51963;46.052;14.544;2023-03-19T06:18:58;98367.38;;;4.00;100.00
56182;BME280;51963;46.052;14.544;2023-03-19T06:21:25;98365.94;;;4.06;100.00
56182;BME280;51963;46.052;14.544;2023-03-19T06:23:56;98386.47;;;4.29;99.67
56182;BME280;51963;46.052;14.544;2023-03-19T06:26:28;98379.47;;;4.47;100.00
56182;BME280;51963;46.052;14.544;2023-03-19T06:28:56;98384.34;;;4.60;98.12
56182;BME280;51963;46.052;14.544;2023-03-19T06:31:22;98391.00;;;4.91;95.94
56182;BME280;51963;46.052;14.544;2023-03-19T06:33:51;98392.47;;;5.11;94.59
56182;BME280;51963;46.052;14.544;2023-03-19T06:36:16;98381.94;;;5.03;94.62
56182;BME280;51963;46.052;14.544;2023-03-19T06:38:42;98380.34;;;5.10;94.18
56182;BME280;51963;46.052;14.544;2023-03-19T06:41:08;98373.75;;;5.06;94.21
56182;BME280;51963;46.052;14.544;2023-03-19T06:43:34;98393.50;;;5.19;92.34
56182;BME280;51963;46.052;14.544;2023-03-19T06:46:04;98405.44;;;5.13;95.70
56182;BME280;51963;46.052;14.544;2023-03-19T06:48:32;98393.69;;;5.17;95.07
56182;BME280;51963;46.052;14.544;2023-03-19T06:50:58;98386.94;;;5.14;91.97
56182;BME280;51963;46.052;14.544;2023-03-19T06:53:24;98381.91;;;5.21;92.24
56182;BME280;51963;46.052;14.544;2023-03-19T06:55:50;98393.97;;;5.32;93.48
56182;BME280;51963;46.052;14.544;2023-03-19T06:58:18;98397.97;;;5.45;93.86
56182;BME280;51963;46.052;14.544;2023-03-19T07:00:52;98387.19;;;5.48;93.91
56182;BME280;51963;46.052;14.544;2023-03-19T07:03:18;98387.38;;;5.81;93.09
56182;BME280;51963;46.052;14.544;2023-03-19T07:05:43;98386.13;;;5.93;92.29
56182;BME280;51963;46.052;14.544;2023-03-19T07:08:09;98406.75;;;5.88;89.28
56182;BME280;51963;46.052;14.544;2023-03-19T07:10:39;98411.97;;;5.80;90.64
56182;BME280;51963;46.052;14.544;2023-03-19T07:13:15;98396.78;;;6.00;89.49
56182;BME280;51963;46.052;14.544;2023-03-19T07:15:41;98411.19;;;6.22;88.12
56182;BME280;51963;46.052;14.544;2023-03-19T07:18:06;98403.72;;;6.44;88.56
56182;BME280;51963;46.052;14.544;2023-03-19T07:20:32;98403.88;;;6.51;86.94
56182;BME280;51963;46.052;14.544;2023-03-19T07:22:58;98413.06;;;6.46;86.86
56182;BME280;51963;46.052;14.544;2023-03-19T07:25:26;98409.63;;;6.46;87.43
56182;BME280;51963;46.052;14.544;2023-03-19T07:27:51;98382.72;;;6.60;86.65
56182;BME280;51963;46.052;14.544;2023-03-19T07:30:17;98400.66;;;6.82;85.66
56182;BME280;51963;46.052;14.544;2023-03-19T07:32:43;98379.81;;;6.97;86.33
56182;BME280;51963;46.052;14.544;2023-03-19T07:35:09;98391.44;;;7.36;85.52
56182;BME280;51963;46.052;14.544;2023-03-19T07:37:35;98380.44;;;7.32;81.20
56182;BME280;51963;46.052;14.544;2023-03-19T07:40:01;98404.41;;;7.62;80.78
56182;BME280;51963;46.052;14.544;2023-03-19T07:42:27;98401.47;;;7.48;79.92
56182;BME280;51963;46.052;14.544;2023-03-19T07:44:53;98400.44;;;7.74;80.30
56182;BME280;51963;46.052;14.544;2023-03-19T07:47:19;98403.72;;;7.76;78.41
56182;BME280;51963;46.052;14.544;2023-03-19T07:49:45;98390.88;;;7.82;78.92
56182;BME280;51963;46.052;14.544;2023-03-19T07:52:11;98410.94;;;8.31;77.55
56182;BME280;51963;46.052;14.544;2023-03-19T07:54:37;98388.47;;;8.51;76.57
56182;BME280;51963;46.052;14.544;2023-03-19T07:57:03;98402.41;;;8.60;77.00
56182;BME280;51963;46.052;14.544;2023-03-19T07:59:30;98408.59;;;8.68;76.56
56182;BME280;51963;46.052;14.544;2023-03-19T08:01:55;98408.66;;;8.59;78.13
56182;BME280;51963;46.052;14.544;2023-03-19T08:04:24;98401.72;;;8.90;76.03
56182;BME280;51963;46.052;14.544;2023-03-19T08:06:50;98409.41;;;9.38;75.18
56182;BME280;51963;46.052;14.544;2023-03-19T08:09:16;98401.97;;;9.42;72.57
56182;BME280;51963;46.052;14.544;2023-03-19T08:11:42;98403.69;;;9.49;73.20
56182;BME280;51963;46.052;14.544;2023-03-19T08:14:07;98372.75;;;9.58;72.35
56182;BME280;51963;46.052;14.544;2023-03-19T08:16:33;98394.06;;;9.87;71.87
56182;BME280;51963;46.052;14.544;2023-03-19T08:18:59;98375.13;;;9.68;71.47
56182;BME280;51963;46.052;14.544;2023-03-19T08:21:25;98376.22;;;10.04;71.34
56182;BME280;51963;46.052;14.544;2023-03-19T08:23:51;98386.25;;;9.93;71.77
56182;BME280;51963;46.052;14.544;2023-03-19T08:26:17;98383.31;;;10.03;68.89
56182;BME280;51963;46.052;14.544;2023-03-19T08:28:43;98378.22;;;9.87;68.98
56182;BME280;51963;46.052;14.544;2023-03-19T08:31:11;98396.72;;;10.38;67.11
56182;BME280;51963;46.052;14.544;2023-03-19T08:33:39;98389.47;;;10.77;66.66
56182;BME280;51963;46.052;14.544;2023-03-19T08:36:14;98353.69;;;10.81;64.77
56182;BME280;51963;46.052;14.544;2023-03-19T08:38:42;98396.53;;;11.42;63.31
56182;BME280;51963;46.052;14.544;2023-03-19T08:41:10;98388.34;;;11.37;63.71
56182;BME280;51963;46.052;14.544;2023-03-19T08:43:36;98385.91;;;11.70;61.44
56182;BME280;51963;46.052;14.544;2023-03-19T08:46:03;98393.66;;;12.00;60.41
56182;BME280;51963;46.052;14.544;2023-03-19T08:48:30;98392.97;;;12.27;60.24
56182;BME280;51963;46.052;14.544;2023-03-19T08:50:57;98392.94;;;12.20;61.61
56182;BME280;51963;46.052;14.544;2023-03-19T08:53:23;98402.09;;;12.80;57.63
56182;BME280;51963;46.052;14.544;2023-03-19T08:55:58;98402.94;;;13.14;58.33
56182;BME280;51963;46.052;14.544;2023-03-19T08:58:24;98398.88;;;13.04;55.03
56182;BME280;51963;46.052;14.544;2023-03-19T09:00:51;98398.66;;;13.19;56.56
56182;BME280;51963;46.052;14.544;2023-03-19T09:03:18;98397.22;;;13.77;53.86
56182;BME280;51963;46.052;14.544;2023-03-19T09:05:44;98364.34;;;13.31;53.63
56182;BME280;51963;46.052;14.544;2023-03-19T09:08:09;98394.00;;;13.35;54.02
56182;BME280;51963;46.052;14.544;2023-03-19T09:10:36;98392.31;;;13.81;52.10
56182;BME280;51963;46.052;14.544;2023-03-19T09:13:02;98396.94;;;14.51;50.55
56182;BME280;51963;46.052;14.544;2023-03-19T09:15:27;98372.94;;;14.65;51.73
56182;BME280;51963;46.052;14.544;2023-03-19T09:17:53;98381.22;;;14.89;50.71
56182;BME280;51963;46.052;14.544;2023-03-19T09:20:22;98392.22;;;14.53;49.45
56182;BME280;51963;46.052;14.544;2023-03-19T09:22:48;98390.19;;;14.10;49.79
56182;BME280;51963;46.052;14.544;2023-03-19T09:25:13;98386.19;;;14.40;50.58
56182;BME280;51963;46.052;14.544;2023-03-19T09:27:39;98389.69;;;14.27;50.35
56182;BME280;51963;46.052;14.544;2023-03-19T09:30:05;98394.91;;;14.53;49.79
56182;BME280;51963;46.052;14.544;2023-03-19T09:32:35;98383.59;;;14.97;50.57
56182;BME280;51963;46.052;14.544;2023-03-19T09:35:00;98386.19;;;15.36;47.99
56182;BME280;51963;46.052;14.544;2023-03-19T09:37:26;98381.31;;;16.14;46.15
56182;BME280;51963;46.052;14.544;2023-03-19T09:39:52;98382.88;;;16.22;45.33
56182;BME280;51963;46.052;14.544;2023-03-19T09:44:44;98371.97;;;17.51;41.83
56182;BME280;51963;46.052;14.544;2023-03-19T09:47:43;98371.31;;;18.49;36.87
56182;BME280;51963;46.052;14.544;2023-03-19T09:50:19;98376.88;;;18.18;37.05
56182;BME280;51963;46.052;14.544;2023-03-19T09:57:52;98372.66;;;18.35;34.63
56182;BME280;51963;46.052;14.544;2023-03-19T10:02:53;98370.91;;;19.55;33.30
56182;BME280;51963;46.052;14.544;2023-03-19T10:11:04;98376.03;;;19.39;33.77
56182;BME280;51963;46.052;14.544;2023-03-19T10:14:01;98362.97;;;19.43;33.61
56182;BME280;51963;46.052;14.544;2023-03-19T10:16:33;98368.56;;;19.81;33.45
56182;BME280;51963;46.052;14.544;2023-03-19T10:19:02;98374.13;;;19.34;34.10
56182;BME280;51963;46.052;14.544;2023-03-19T10:21:42;98355.97;;;18.90;34.52
56182;BME280;51963;46.052;14.544;2023-03-19T10:24:32;98355.56;;;19.33;34.27
56182;BME280;51963;46.052;14.544;2023-03-19T10:27:04;98344.50;;;19.46;33.95
56182;BME280;51963;46.052;14.544;2023-03-19T10:29:33;98362.69;;;19.61;34.26
56182;BME280;51963;46.052;14.544;2023-03-19T10:32:07;98346.19;;;20.36;32.62
56182;BME280;51963;46.052;14.544;2023-03-19T10:34:42;98360.22;;;19.77;33.56
56182;BME280;51963;46.052;14.544;2023-03-19T10:37:22;98348.63;;;18.69;35.01
56182;BME280;51963;46.052;14.544;2023-03-19T10:39:51;98345.81;;;19.83;33.36
56182;BME280;51963;46.052;14.544;2023-03-19T10:45:27;98316.03;;;20.57;33.08
56182;BME280;51963;46.052;14.544;2023-03-19T10:47:55;98350.81;;;21.34;31.90
56182;BME280;51963;46.052;14.544;2023-03-19T10:55:53;98337.44;;;21.06;32.89
56182;BME280;51963;46.052;14.544;2023-03-19T10:58:22;98341.97;;;20.73;32.99
56182;BME280;51963;46.052;14.544;2023-03-19T11:00:58;98336.56;;;21.01;32.16
56182;BME280;51963;46.052;14.544;2023-03-19T11:03:40;98332.09;;;22.08;31.13
56182;BME280;51963;46.052;14.544;2023-03-19T11:06:34;98336.50;;;21.66;31.54
56182;BME280;51963;46.052;14.544;2023-03-19T11:11:45;98324.16;;;21.70;31.32
56182;BME280;51963;46.052;14.544;2023-03-19T11:14:18;98330.50;;;22.12;30.59
56182;BME280;51963;46.052;14.544;2023-03-19T11:19:20;98330.09;;;22.93;29.80
56182;BME280;51963;46.052;14.544;2023-03-19T11:22:15;98348.13;;;23.59;28.96
56182;BME280;51963;46.052;14.544;2023-03-19T11:24:40;98351.44;;;23.25;28.69
56182;BME280;51963;46.052;14.544;2023-03-19T11:27:08;98354.50;;;23.90;28.34
56182;BME280;51963;46.052;14.544;2023-03-19T11:29:41;98342.84;;;24.55;27.08
56182;BME280;51963;46.052;14.544;2023-03-19T11:40:34;98345.53;;;24.60;26.78
56182;BME280;51963;46.052;14.544;2023-03-19T11:46:03;98337.38;;;23.44;29.55
56182;BME280;51963;46.052;14.544;2023-03-19T11:51:29;98330.38;;;23.07;29.38
56182;BME280;51963;46.052;14.544;2023-03-19T11:54:22;98310.63;;;23.53;29.27
56182;BME280;51963;46.052;14.544;2023-03-19T11:56:58;98330.25;;;23.79;28.79
56182;BME280;51963;46.052;14.544;2023-03-19T12:02:47;98315.84;;;22.77;30.19
56182;BME280;51963;46.052;14.544;2023-03-19T12:05:24;98315.28;;;22.80;29.63
56182;BME280;51963;46.052;14.544;2023-03-19T12:07:58;98310.97;;;22.68;29.82
56182;BME280;51963;46.052;14.544;2023-03-19T12:10:43;98304.66;;;22.16;30.98
56182;BME280;51963;46.052;14.544;2023-03-19T12:16:38;98310.25;;;21.94;32.29
56182;BME280;51963;46.052;14.544;2023-03-19T12:24:22;98296.06;;;21.50;31.57
56182;BME280;51963;46.052;14.544;2023-03-19T12:30:03;98304.50;;;21.21;32.71
56182;BME280;51963;46.052;14.544;2023-03-19T12:35:25;98304.50;;;18.88;35.59
56182;BME280;51963;46.052;14.544;2023-03-19T12:43:20;98269.72;;;18.25;36.41
56182;BME280;51963;46.052;14.544;2023-03-19T12:46:01;98282.97;;;17.79;37.26
56182;BME280;51963;46.052;14.544;2023-03-19T12:48:41;98286.16;;;18.17;37.46
56182;BME280;51963;46.052;14.544;2023-03-19T12:51:09;98300.50;;;18.11;37.02
56182;BME280;51963;46.052;14.544;2023-03-19T12:53:48;98272.66;;;17.71;37.53
56182;BME280;51963;46.052;14.544;2023-03-19T12:56:40;98293.09;;;17.89;37.26
56182;BME280;51963;46.052;14.544;2023-03-19T12:59:23;98299.50;;;18.46;37.18
56182;BME280;51963;46.052;14.544;2023-03-19T13:01:56;98274.34;;;17.60;36.98
56182;BME280;51963;46.052;14.544;2023-03-19T13:04:31;98297.38;;;17.37;37.89
56182;BME280;51963;46.052;14.544;2023-03-19T13:07:02;98289.47;;;17.42;37.67
56182;BME280;51963;46.052;14.544;2023-03-19T13:09:47;98284.84;;;17.26;37.84
56182;BME280;51963;46.052;14.544;2023-03-19T13:17:56;98273.56;;;17.24;37.98
56182;BME280;51963;46.052;14.544;2023-03-19T13:23:12;98278.41;;;17.39;38.07
56182;BME280;51963;46.052;14.544;2023-03-19T13:25:41;98282.06;;;17.21;38.38
56182;BME280;51963;46.052;14.544;2023-03-19T13:28:11;98297.72;;;17.17;38.74
56182;BME280;51963;46.052;14.544;2023-03-19T13:30:37;98255.19;;;16.80;38.86
56182;BME280;51963;46.052;14.544;2023-03-19T13:33:18;98283.03;;;17.55;38.31
56182;BME280;51963;46.052;14.544;2023-03-19T13:35:49;98288.63;;;17.42;38.12
56182;BME280;51963;46.052;14.544;2023-03-19T13:38:24;98274.69;;;18.05;36.58
56182;BME280;51963;46.052;14.544;2023-03-19T13:40:57;98260.63;;;19.29;34.72
56182;BME280;51963;46.052;14.544;2023-03-19T13:56:18;98255.38;;;19.56;34.16
56182;BME280;51963;46.052;14.544;2023-03-19T14:01:38;98256.03;;;20.73;32.78
56182;BME280;51963;46.052;14.544;2023-03-19T14:04:14;98265.50;;;20.21;33.14
56182;BME280;51963;46.052;14.544;2023-03-19T14:07:09;98261.66;;;18.88;35.37
56182;BME280;51963;46.052;14.544;2023-03-19T14:10:23;98253.59;;;18.88;35.72
56182;BME280;51963;46.052;14.544;2023-03-19T14:12:35;98256.81;;;20.14;34.06
56182;BME280;51963;46.052;14.544;2023-03-19T14:18:11;98250.56;;;23.06;29.79
56182;BME280;51963;46.052;14.544;2023-03-19T14:20:43;98263.38;;;23.61;28.35
56182;BME280;51963;46.052;14.544;2023-03-19T14:25:52;98256.00;;;21.59;31.32
56182;BME280;51963;46.052;14.544;2023-03-19T14:28:23;98255.16;;;21.43;31.24
56182;BME280;51963;46.052;14.544;2023-03-19T14:30:52;98253.59;;;20.12;33.65
56182;BME280;51963;46.052;14.544;2023-03-19T14:33:24;98249.00;;;20.40;33.54
56182;BME280;51963;46.052;14.544;2023-03-19T14:35:51;98251.69;;;19.01;35.44
56182;BME280;51963;46.052;14.544;2023-03-19T14:38:33;98222.53;;;18.36;37.17
56182;BME280;51963;46.052;14.544;2023-03-19T14:41:02;98265.72;;;17.99;38.10
56182;BME280;51963;46.052;14.544;2023-03-19T14:43:37;98258.97;;;17.67;38.99
56182;BME280;51963;46.052;14.544;2023-03-19T14:46:27;98223.97;;;16.80;41.21
56182;BME280;51963;46.052;14.544;2023-03-19T14:49:27;98264.44;;;16.53;42.40
56182;BME280;51963;46.052;14.544;2023-03-19T14:54:49;98262.22;;;16.08;43.71